sensor_id;sensor_type;location;lat;lon;timestamp;pressure;altitude;pressure_sealevel;temperature;humidity
4858;BME280;58975;51.978;8.472;2023-08-12T00:01:31;100495.94;;;18.61;100.00
4858;BME280;58975;51.978;8.472;2023-08-12T00:06:27;100486.81;;;18.70;100.00
4858;BME280;58975;51.978;8.472;2023-08-12T00:11:25;100494.22;;;18.68;100.00
4858;BME280;58975;51.978;8.472;2023-08-12T00:16:21;100513.94;;;18.76;100.00
4858;BME280;58975;51.978;8.472;2023-08-12T00:21:18;100517.44;;;18.93;100.00
4858;BME280;58975;51.978;8.472;2023-08-12T00:26:14;100536.91;;;19.11;100.00
4858;BME280;58975;51.978;8.472;2023-08-12T00:31:11;100525.16;;;19.43;100.00
4858;BME280;58975;51.978;8.472;2023-08-12T00:36:07;100536.97;;;19.42;100.00
4858;BME280;58975;51.978;8.472;2023-08-12T00:41:04;100525.47;;;19.40;100.00
4858;BME280;58975;51.978;8.472;2023-08-12T00:46:00;100516.53;;;19.40;100.00
4858;BME280;58975;51.978;8.472;2023-08-12T00:50:57;100506.09;;;19.36;100.00
4858;BME280;58975;51.978;8.472;2023-08-12T00:55:53;100548.09;;;19.39;100.00
4858;BME280;58975;51.978;8.472;2023-08-12T01:00:51;100538.78;;;19.42;100.00
4858;BME280;58975;51.978;8.472;2023-08-12T01:05:47;100542.25;;;19.27;100.00
4858;BME280;58975;51.978;8.472;2023-08-12T01:10:52;100525.13;;;19.04;100.00
4858;BME280;58975;51.978;8.472;2023-08-12T01:15:56;100512.47;;;19.05;100.00
4858;BME280;58975;51.978;8.472;2023-08-12T01:20:55;100509.59;;;19.06;100.00
4858;BME280;58975;51.978;8.472;2023-08-12T01:25:51;100500.13;;;19.10;100.00
4858;BME280;58975;51.978;8.472;2023-08-12T01:30:55;100509.09;;;19.03;100.00
4858;BME280;58975;51.978;8.472;2023-08-12T01:35:55;100499.88;;;18.97;100.00
4858;BME280;58975;51.978;8.472;2023-08-12T01:40:57;100498.66;;;19.00;100.00
4858;BME280;58975;51.978;8.472;2023-08-12T01:45:55;100514.63;;;19.09;100.00
4858;BME280;58975;51.978;8.472;2023-08-12T01:50:51;100527.13;;;19.10;100.00
4858;BME280;58975;51.978;8.472;2023-08-12T01:55:49;100543.03;;;18.97;100.00
4858;BME280;58975;51.978;8.472;2023-08-12T02:00:46;100557.59;;;18.80;100.00
4858;BME280;58975;51.978;8.472;2023-08-12T02:05:42;100554.56;;;18.75;100.00
4858;BME280;58975;51.978;8.472;2023-08-12T02:10:39;100544.25;;;18.78;100.00
4858;BME280;58975;51.978;8.472;2023-08-12T02:15:36;100545.81;;;18.73;100.00
4858;BME280;58975;51.978;8.472;2023-08-12T02:20:32;100556.75;;;18.71;100.00
4858;BME280;58975;51.978;8.472;2023-08-12T02:25:30;100561.66;;;18.68;100.00
4858;BME280;58975;51.978;8.472;2023-08-12T02:30:28;100557.13;;;18.60;100.00
4858;BME280;58975;51.978;8.472;2023-08-12T02:35:25;100559.81;;;18.60;100.00
4858;BME280;58975;51.978;8.472;2023-08-12T02:40:21;100574.81;;;18.55;100.00
4858;BME280;58975;51.978;8.472;2023-08-12T02:45:18;100572.31;;;18.53;100.00
4858;BME280;58975;51.978;8.472;2023-08-12T02:50:14;100574.13;;;18.44;100.00
4858;BME280;58975;51.978;8.472;2023-08-12T02:55:11;100585.09;;;18.35;100.00
4858;BME280;58975;51.978;8.472;2023-08-12T03:00:09;100573.63;;;18.41;100.00
4858;BME280;58975;51.978;8.472;2023-08-12T03:05:06;100594.72;;;18.37;100.00
4858;BME280;58975;51.978;8.472;2023-08-12T03:10:03;100598.06;;;18.39;100.00
4858;BME280;58975;51.978;8.472;2023-08-12T03:14:59;100590.16;;;18.38;100.00
4858;BME280;58975;51.978;8.472;2023-08-12T03:19:57;100589.97;;;18.31;100.00
4858;BME280;58975;51.978;8.472;2023-08-12T03:24:55;100591.00;;;18.30;100.00
4858;BME280;58975;51.978;8.472;2023-08-12T03:29:52;100602.78;;;18.29;100.00
4858;BME280;58975;51.978;8.472;2023-08-12T03:34:48;100595.06;;;18.26;100.00
4858;BME280;58975;51.978;8.472;2023-08-12T03:39:45;100596.91;;;18.26;100.00
4858;BME280;58975;51.978;8.472;2023-08-12T03:44:41;100604.81;;;18.27;100.00
4858;BME280;58975;51.978;8.472;2023-08-12T03:49:37;100603.31;;;18.49;100.00
4858;BME280;58975;51.978;8.472;2023-08-12T03:54:34;100603.47;;;18.39;100.00
4858;BME280;58975;51.978;8.472;2023-08-12T03:59:30;100603.97;;;18.35;100.00
4858;BME280;58975;51.978;8.472;2023-08-12T04:04:27;100607.50;;;18.35;100.00
4858;BME280;58975;51.978;8.472;2023-08-12T04:09:24;100619.97;;;18.36;100.00
4858;BME280;58975;51.978;8.472;2023-08-12T04:14:20;100614.25;;;18.39;100.00
4858;BME280;58975;51.978;8.472;2023-08-12T04:19:17;100612.38;;;18.32;100.00
4858;BME280;58975;51.978;8.472;2023-08-12T04:24:13;100616.63;;;18.34;100.00
4858;BME280;58975;51.978;8.472;2023-08-12T04:29:10;100615.59;;;18.35;100.00
4858;BME280;58975;51.978;8.472;2023-08-12T04:34:06;100627.56;;;18.33;100.00
4858;BME280;58975;51.978;8.472;2023-08-12T04:39:03;100618.47;;;18.34;100.00
4858;BME280;58975;51.978;8.472;2023-08-12T04:44:00;100614.94;;;18.33;100.00
4858;BME280;58975;51.978;8.472;2023-08-12T04:48:56;100628.22;;;18.35;100.00
4858;BME280;58975;51.978;8.472;2023-08-12T04:53:53;100640.56;;;18.46;100.00
4858;BME280;58975;51.978;8.472;2023-08-12T04:58:49;100609.84;;;18.47;100.00
4858;BME280;58975;51.978;8.472;2023-08-12T05:03:46;100613.59;;;18.46;100.00
4858;BME280;58975;51.978;8.472;2023-08-12T05:08:42;100607.50;;;18.43;100.00
4858;BME280;58975;51.978;8.472;2023-08-12T05:13:39;100616.78;;;18.41;100.00
4858;BME280;58975;51.978;8.472;2023-08-12T05:18:35;100604.16;;;18.50;100.00
4858;BME280;58975;51.978;8.472;2023-08-12T05:23:32;100605.81;;;18.51;100.00
4858;BME280;58975;51.978;8.472;2023-08-12T05:28:28;100603.84;;;18.53;100.00
4858;BME280;58975;51.978;8.472;2023-08-12T05:33:25;100597.94;;;18.57;100.00
4858;BME280;58975;51.978;8.472;2023-08-12T05:38:21;100597.94;;;18.65;100.00
4858;BME280;58975;51.978;8.472;2023-08-12T05:43:18;100598.41;;;18.77;100.00
4858;BME280;58975;51.978;8.472;2023-08-12T05:48:14;100590.31;;;18.85;100.00
4858;BME280;58975;51.978;8.472;2023-08-12T05:53:11;100581.84;;;18.88;100.00
4858;BME280;58975;51.978;8.472;2023-08-12T05:58:07;100582.84;;;18.95;100.00
4858;BME280;58975;51.978;8.472;2023-08-12T06:03:04;100582.16;;;19.01;100.00
4858;BME280;58975;51.978;8.472;2023-08-12T06:08:00;100576.97;;;19.30;100.00
4858;BME280;58975;51.978;8.472;2023-08-12T06:12:57;100570.69;;;19.46;100.00
4858;BME280;58975;51.978;8.472;2023-08-12T06:17:53;100549.59;;;19.72;100.00
4858;BME280;58975;51.978;8.472;2023-08-12T06:22:50;100514.25;;;19.82;100.00
4858;BME280;58975;51.978;8.472;2023-08-12T06:27:47;100486.22;;;19.83;100.00
4858;BME280;58975;51.978;8.472;2023-08-12T06:32:44;100451.97;;;19.98;100.00
4858;BME280;58975;51.978;8.472;2023-08-12T06:37:40;100446.97;;;20.24;100.00
4858;BME280;58975;51.978;8.472;2023-08-12T06:42:38;100427.44;;;20.52;100.00
4858;BME280;58975;51.978;8.472;2023-08-12T06:47:34;100402.75;;;20.91;100.00
4858;BME280;58975;51.978;8.472;2023-08-12T06:52:31;100381.38;;;21.32;100.00
4858;BME280;58975;51.978;8.472;2023-08-12T06:57:27;100359.44;;;21.27;100.00
4858;BME280;58975;51.978;8.472;2023-08-12T07:02:24;100356.81;;;21.82;100.00
4858;BME280;58975;51.978;8.472;2023-08-12T07:07:20;100353.28;;;21.88;100.00
4858;BME280;58975;51.978;8.472;2023-08-12T07:12:17;100362.78;;;21.50;100.00
4858;BME280;58975;51.978;8.472;2023-08-12T07:17:13;100364.13;;;21.18;100.00
4858;BME280;58975;51.978;8.472;2023-08-12T07:22:10;100364.91;;;21.12;100.00
4858;BME280;58975;51.978;8.472;2023-08-12T07:27:06;100371.88;;;21.42;100.00
4858;BME280;58975;51.978;8.472;2023-08-12T07:32:03;100372.66;;;21.85;100.00
4858;BME280;58975;51.978;8.472;2023-08-12T07:37:00;100365.06;;;21.95;100.00
4858;BME280;58975;51.978;8.472;2023-08-12T07:41:56;100360.06;;;22.27;100.00
4858;BME280;58975;51.978;8.472;2023-08-12T07:46:53;100349.25;;;22.40;100.00
4858;BME280;58975;51.978;8.472;2023-08-12T07:51:50;100352.94;;;22.26;100.00
4858;BME280;58975;51.978;8.472;2023-08-12T07:56:46;100344.56;;;22.21;100.00
4858;BME280;58975;51.978;8.472;2023-08-12T08:01:43;100337.47;;;22.20;100.00
4858;BME280;58975;51.978;8.472;2023-08-12T08:06:39;100340.78;;;21.87;100.00
4858;BME280;58975;51.978;8.472;2023-08-12T08:11:36;100342.75;;;21.44;100.00
4858;BME280;58975;51.978;8.472;2023-08-12T08:16:32;100334.94;;;21.35;100.00
4858;BME280;58975;51.978;8.472;2023-08-12T08:21:29;100321.25;;;21.43;100.00
4858;BME280;58975;51.978;8.472;2023-08-12T08:26:25;100318.13;;;21.46;100.00
4858;BME280;58975;51.978;8.472;2023-08-12T08:31:23;100313.13;;;21.43;100.00
4858;BME280;58975;51.978;8.472;2023-08-12T08:36:19;100314.53;;;21.39;100.00
4858;BME280;58975;51.978;8.472;2023-08-12T08:41:16;100314.22;;;21.27;100.00
4858;BME280;58975;51.978;8.472;2023-08-12T08:46:15;100312.69;;;21.18;100.00
4858;BME280;58975;51.978;8.472;2023-08-12T08:51:13;100310.53;;;21.13;100.00
4858;BME280;58975;51.978;8.472;2023-08-12T09:13:31;100328.69;;;22.17;100.00
4858;BME280;58975;51.978;8.472;2023-08-12T09:18:29;100299.63;;;22.52;100.00
4858;BME280;58975;51.978;8.472;2023-08-12T09:23:26;100301.09;;;23.16;100.00
4858;BME280;58975;51.978;8.472;2023-08-12T09:28:24;100285.81;;;23.15;100.00
4858;BME280;58975;51.978;8.472;2023-08-12T09:33:25;100279.78;;;23.19;100.00
4858;BME280;58975;51.978;8.472;2023-08-12T09:38:22;100271.66;;;23.45;100.00
4858;BME280;58975;51.978;8.472;2023-08-12T09:43:23;100260.03;;;24.16;100.00
4858;BME280;58975;51.978;8.472;2023-08-12T09:48:20;100264.34;;;24.81;100.00
4858;BME280;58975;51.978;8.472;2023-08-12T09:53:17;100262.78;;;24.60;100.00
4858;BME280;58975;51.978;8.472;2023-08-12T09:58:16;100269.16;;;24.41;100.00
4858;BME280;58975;51.978;8.472;2023-08-12T10:03:14;100267.31;;;24.66;100.00
4858;BME280;58975;51.978;8.472;2023-08-12T10:08:13;100262.56;;;25.00;100.00
4858;BME280;58975;51.978;8.472;2023-08-12T10:13:10;100263.25;;;25.20;100.00
4858;BME280;58975;51.978;8.472;2023-08-12T10:18:08;100259.56;;;25.08;100.00
4858;BME280;58975;51.978;8.472;2023-08-12T10:23:07;100255.69;;;24.90;100.00
4858;BME280;58975;51.978;8.472;2023-08-12T10:28:06;100255.78;;;24.33;100.00
4858;BME280;58975;51.978;8.472;2023-08-12T10:33:03;100257.63;;;23.75;100.00
4858;BME280;58975;51.978;8.472;2023-08-12T10:37:59;100263.03;;;23.42;100.00
4858;BME280;58975;51.978;8.472;2023-08-12T10:42:56;100258.44;;;23.09;100.00
4858;BME280;58975;51.978;8.472;2023-08-12T10:52:55;100265.97;;;23.01;100.00
4858;BME280;58975;51.978;8.472;2023-08-12T10:57:53;100252.63;;;23.52;100.00
4858;BME280;58975;51.978;8.472;2023-08-12T11:02:54;100242.91;;;23.95;100.00
4858;BME280;58975;51.978;8.472;2023-08-12T11:07:57;100234.38;;;23.85;100.00
4858;BME280;58975;51.978;8.472;2023-08-12T11:12:55;100240.03;;;23.77;100.00
4858;BME280;58975;51.978;8.472;2023-08-12T11:17:52;100222.09;;;23.50;100.00
4858;BME280;58975;51.978;8.472;2023-08-12T11:22:50;100221.28;;;23.43;100.00
4858;BME280;58975;51.978;8.472;2023-08-12T11:27:47;100227.09;;;22.94;100.00
4858;BME280;58975;51.978;8.472;2023-08-12T11:32:45;100239.75;;;22.67;100.00
4858;BME280;58975;51.978;8.472;2023-08-12T11:37:46;100245.38;;;22.52;100.00
4858;BME280;58975;51.978;8.472;2023-08-12T11:42:45;100243.31;;;22.61;100.00
4858;BME280;58975;51.978;8.472;2023-08-12T11:47:42;100243.19;;;22.22;100.00
4858;BME280;58975;51.978;8.472;2023-08-12T11:52:40;100229.38;;;22.23;100.00
4858;BME280;58975;51.978;8.472;2023-08-12T11:57:39;100232.25;;;22.08;100.00
4858;BME280;58975;51.978;8.472;2023-08-12T12:02:41;100235.53;;;21.97;100.00
4858;BME280;58975;51.978;8.472;2023-08-12T12:07:41;100220.50;;;22.49;100.00
4858;BME280;58975;51.978;8.472;2023-08-12T12:12:38;100215.41;;;23.20;100.00
4858;BME280;58975;51.978;8.472;2023-08-12T12:17:39;100207.91;;;23.48;100.00
4858;BME280;58975;51.978;8.472;2023-08-12T12:22:37;100197.84;;;23.35;100.00
4858;BME280;58975;51.978;8.472;2023-08-12T12:27:34;100192.44;;;23.29;100.00
4858;BME280;58975;51.978;8.472;2023-08-12T12:32:31;100194.50;;;23.27;100.00
4858;BME280;58975;51.978;8.472;2023-08-12T12:37:28;100203.31;;;23.09;100.00
4858;BME280;58975;51.978;8.472;2023-08-12T12:42:24;100199.94;;;22.81;100.00
4858;BME280;58975;51.978;8.472;2023-08-12T12:47:20;100205.72;;;22.58;100.00
4858;BME280;58975;51.978;8.472;2023-08-12T12:52:17;100213.00;;;22.51;100.00
4858;BME280;58975;51.978;8.472;2023-08-12T12:57:13;100210.28;;;22.51;100.00
4858;BME280;58975;51.978;8.472;2023-08-12T13:02:10;100212.97;;;22.38;100.00
4858;BME280;58975;51.978;8.472;2023-08-12T13:07:07;100210.22;;;22.25;100.00
4858;BME280;58975;51.978;8.472;2023-08-12T13:12:03;100219.09;;;21.99;100.00
4858;BME280;58975;51.978;8.472;2023-08-12T13:17:00;100238.97;;;21.78;100.00
4858;BME280;58975;51.978;8.472;2023-08-12T13:21:56;100240.91;;;21.29;100.00
4858;BME280;58975;51.978;8.472;2023-08-12T13:26:53;100251.00;;;21.41;100.00
4858;BME280;58975;51.978;8.472;2023-08-12T13:31:50;100241.88;;;21.49;100.00
4858;BME280;58975;51.978;8.472;2023-08-12T13:36:47;100235.09;;;22.41;100.00
4858;BME280;58975;51.978;8.472;2023-08-12T13:41:43;100236.31;;;23.19;100.00
4858;BME280;58975;51.978;8.472;2023-08-12T13:46:40;100232.66;;;23.97;100.00
4858;BME280;58975;51.978;8.472;2023-08-12T13:51:36;100223.69;;;23.90;100.00
4858;BME280;58975;51.978;8.472;2023-08-12T13:56:33;100235.81;;;23.94;100.00
4858;BME280;58975;51.978;8.472;2023-08-12T14:01:29;100242.41;;;24.25;100.00
4858;BME280;58975;51.978;8.472;2023-08-12T14:06:26;100242.50;;;23.92;100.00
4858;BME280;58975;51.978;8.472;2023-08-12T14:11:23;100234.25;;;24.12;100.00
4858;BME280;58975;51.978;8.472;2023-08-12T14:16:19;100233.75;;;23.83;100.00
4858;BME280;58975;51.978;8.472;2023-08-12T14:21:16;100243.81;;;23.04;100.00
4858;BME280;58975;51.978;8.472;2023-08-12T14:26:12;100227.44;;;22.58;100.00
4858;BME280;58975;51.978;8.472;2023-08-12T14:31:09;100242.66;;;21.98;100.00
4858;BME280;58975;51.978;8.472;2023-08-12T14:36:05;100227.16;;;21.58;100.00
4858;BME280;58975;51.978;8.472;2023-08-12T14:41:02;100241.88;;;21.21;100.00
4858;BME280;58975;51.978;8.472;2023-08-12T14:45:58;100267.16;;;20.86;100.00
4858;BME280;58975;51.978;8.472;2023-08-12T14:50:55;100258.56;;;21.03;100.00
4858;BME280;58975;51.978;8.472;2023-08-12T14:55:51;100248.09;;;21.43;100.00
4858;BME280;58975;51.978;8.472;2023-08-12T15:00:48;100243.16;;;21.53;100.00
4858;BME280;58975;51.978;8.472;2023-08-12T15:05:44;100251.75;;;21.91;100.00
4858;BME280;58975;51.978;8.472;2023-08-12T15:10:41;100255.66;;;22.16;100.00
4858;BME280;58975;51.978;8.472;2023-08-12T15:15:37;100240.22;;;21.82;100.00
4858;BME280;58975;51.978;8.472;2023-08-12T15:20:33;100251.09;;;21.54;100.00
4858;BME280;58975;51.978;8.472;2023-08-12T15:25:30;100284.59;;;20.83;100.00
4858;BME280;58975;51.978;8.472;2023-08-12T15:30:30;100300.56;;;20.57;100.00
4858;BME280;58975;51.978;8.472;2023-08-12T15:35:27;100309.50;;;20.43;100.00
4858;BME280;58975;51.978;8.472;2023-08-12T15:40:24;100335.19;;;20.32;100.00
4858;BME280;58975;51.978;8.472;2023-08-12T15:45:21;100348.09;;;20.07;100.00
4858;BME280;58975;51.978;8.472;2023-08-12T15:50:17;100353.63;;;19.99;100.00
4858;BME280;58975;51.978;8.472;2023-08-12T15:55:14;100384.72;;;19.80;100.00
4858;BME280;58975;51.978;8.472;2023-08-12T16:00:11;100416.94;;;19.67;100.00
4858;BME280;58975;51.978;8.472;2023-08-12T16:05:07;100424.91;;;19.61;100.00
4858;BME280;58975;51.978;8.472;2023-08-12T16:10:04;100427.81;;;19.59;100.00
4858;BME280;58975;51.978;8.472;2023-08-12T16:15:01;100446.47;;;19.46;100.00
4858;BME280;58975;51.978;8.472;2023-08-12T16:19:58;100455.78;;;19.35;100.00
4858;BME280;58975;51.978;8.472;2023-08-12T16:24:55;100439.88;;;19.71;100.00
4858;BME280;58975;51.978;8.472;2023-08-12T16:29:51;100438.09;;;20.16;100.00
4858;BME280;58975;51.978;8.472;2023-08-12T16:34:48;100408.25;;;20.83;100.00
4858;BME280;58975;51.978;8.472;2023-08-12T16:39:44;100362.28;;;21.40;100.00
4858;BME280;58975;51.978;8.472;2023-08-12T16:44:41;100328.53;;;21.91;100.00
4858;BME280;58975;51.978;8.472;2023-08-12T16:49:38;100316.88;;;22.86;100.00
4858;BME280;58975;51.978;8.472;2023-08-12T16:54:34;100316.09;;;21.48;100.00
4858;BME280;58975;51.978;8.472;2023-08-12T16:59:30;100313.75;;;24.40;100.00
4858;BME280;58975;51.978;8.472;2023-08-12T17:04:27;100318.84;;;25.43;100.00
4858;BME280;58975;51.978;8.472;2023-08-12T17:09:23;100314.59;;;28.29;100.00
4858;BME280;58975;51.978;8.472;2023-08-12T17:14:20;100319.72;;;29.22;100.00
4858;BME280;58975;51.978;8.472;2023-08-12T17:19:16;100314.47;;;28.12;100.00
4858;BME280;58975;51.978;8.472;2023-08-12T17:24:13;100328.13;;;28.87;100.00
4858;BME280;58975;51.978;8.472;2023-08-12T17:29:09;100331.72;;;28.88;100.00
4858;BME280;58975;51.978;8.472;2023-08-12T17:34:06;100330.88;;;28.24;100.00
4858;BME280;58975;51.978;8.472;2023-08-12T17:39:03;100323.84;;;24.77;100.00
4858;BME280;58975;51.978;8.472;2023-08-12T17:44:00;100336.88;;;22.24;100.00
4858;BME280;58975;51.978;8.472;2023-08-12T17:48:57;100335.50;;;21.79;100.00
4858;BME280;58975;51.978;8.472;2023-08-12T17:53:53;100352.78;;;21.50;100.00
4858;BME280;58975;51.978;8.472;2023-08-12T17:58:50;100347.56;;;21.28;100.00
4858;BME280;58975;51.978;8.472;2023-08-12T18:03:46;100354.19;;;21.25;100.00
4858;BME280;58975;51.978;8.472;2023-08-12T18:08:43;100370.34;;;21.12;100.00
4858;BME280;58975;51.978;8.472;2023-08-12T18:13:39;100375.22;;;20.87;100.00
4858;BME280;58975;51.978;8.472;2023-08-12T18:18:36;100389.88;;;21.29;100.00
4858;BME280;58975;51.978;8.472;2023-08-12T18:23:33;100388.75;;;21.87;100.00
4858;BME280;58975;51.978;8.472;2023-08-12T18:28:29;100390.00;;;22.81;100.00
4858;BME280;58975;51.978;8.472;2023-08-12T18:33:25;100403.03;;;21.95;100.00
4858;BME280;58975;51.978;8.472;2023-08-12T18:38:22;100407.50;;;21.39;100.00
4858;BME280;58975;51.978;8.472;2023-08-12T18:43:18;100416.69;;;20.73;100.00
4858;BME280;58975;51.978;8.472;2023-08-12T18:48:15;100436.47;;;20.29;100.00
4858;BME280;58975;51.978;8.472;2023-08-12T18:53:11;100451.13;;;20.12;100.00
4858;BME280;58975;51.978;8.472;2023-08-12T18:58:08;100449.06;;;20.00;100.00
4858;BME280;58975;51.978;8.472;2023-08-12T19:03:04;100448.38;;;19.83;100.00
4858;BME280;58975;51.978;8.472;2023-08-12T19:08:01;100456.41;;;19.46;100.00
4858;BME280;58975;51.978;8.472;2023-08-12T19:12:58;100481.47;;;19.31;100.00
4858;BME280;58975;51.978;8.472;2023-08-12T19:17:55;100486.38;;;19.28;100.00
4858;BME280;58975;51.978;8.472;2023-08-12T19:22:52;100490.34;;;19.09;100.00
4858;BME280;58975;51.978;8.472;2023-08-12T19:27:48;100495.63;;;18.95;100.00
4858;BME280;58975;51.978;8.472;2023-08-12T19:32:52;100504.47;;;18.80;100.00
4858;BME280;58975;51.978;8.472;2023-08-12T19:37:49;100507.69;;;18.76;100.00
4858;BME280;58975;51.978;8.472;2023-08-12T19:42:45;100521.91;;;18.62;100.00
4858;BME280;58975;51.978;8.472;2023-08-12T19:47:43;100511.78;;;18.48;100.00
4858;BME280;58975;51.978;8.472;2023-08-12T19:52:39;100529.00;;;18.30;100.00
4858;BME280;58975;51.978;8.472;2023-08-12T19:57:36;100537.75;;;18.16;100.00
4858;BME280;58975;51.978;8.472;2023-08-12T20:02:32;100546.88;;;18.07;100.00
4858;BME280;58975;51.978;8.472;2023-08-12T20:07:35;100550.91;;;18.03;100.00
4858;BME280;58975;51.978;8.472;2023-08-12T20:12:31;100544.16;;;17.99;100.00
4858;BME280;58975;51.978;8.472;2023-08-12T20:17:28;100543.13;;;17.84;100.00
4858;BME280;58975;51.978;8.472;2023-08-12T20:22:24;100544.78;;;17.69;100.00
4858;BME280;58975;51.978;8.472;2023-08-12T20:27:21;100551.28;;;17.50;100.00
4858;BME280;58975;51.978;8.472;2023-08-12T20:32:17;100546.69;;;17.34;100.00
4858;BME280;58975;51.978;8.472;2023-08-12T20:37:13;100553.88;;;17.26;100.00
4858;BME280;58975;51.978;8.472;2023-08-12T20:42:10;100550.59;;;17.06;100.00
4858;BME280;58975;51.978;8.472;2023-08-12T20:47:07;100549.53;;;16.91;100.00
4858;BME280;58975;51.978;8.472;2023-08-12T20:52:04;100553.53;;;16.87;100.00
4858;BME280;58975;51.978;8.472;2023-08-12T20:57:01;100566.66;;;16.90;100.00
4858;BME280;58975;51.978;8.472;2023-08-12T21:01:57;100573.69;;;16.83;100.00
4858;BME280;58975;51.978;8.472;2023-08-12T21:06:54;100570.28;;;16.73;100.00
4858;BME280;58975;51.978;8.472;2023-08-12T21:11:54;100573.06;;;16.63;100.00
4858;BME280;58975;51.978;8.472;2023-08-12T21:16:51;100574.13;;;16.52;100.00
4858;BME280;58975;51.978;8.472;2023-08-12T21:21:47;100570.94;;;16.49;100.00
4858;BME280;58975;51.978;8.472;2023-08-12T21:26:44;100573.41;;;16.42;100.00
4858;BME280;58975;51.978;8.472;2023-08-12T21:31:40;100585.75;;;16.35;100.00
4858;BME280;58975;51.978;8.472;2023-08-12T21:36:37;100584.16;;;16.25;100.00
4858;BME280;58975;51.978;8.472;2023-08-12T21:41:33;100586.47;;;16.20;100.00
4858;BME280;58975;51.978;8.472;2023-08-12T21:46:30;100585.19;;;16.06;100.00
4858;BME280;58975;51.978;8.472;2023-08-12T21:51:26;100588.09;;;15.95;100.00
4858;BME280;58975;51.978;8.472;2023-08-12T21:56:22;100590.94;;;15.93;100.00
4858;BME280;58975;51.978;8.472;2023-08-12T22:01:19;100598.84;;;15.95;100.00
4858;BME280;58975;51.978;8.472;2023-08-12T22:06:16;100607.06;;;15.93;100.00
4858;BME280;58975;51.978;8.472;2023-08-12T22:11:13;100615.03;;;15.85;100.00
4858;BME280;58975;51.978;8.472;2023-08-12T22:16:09;100622.94;;;15.87;100.00
4858;BME280;58975;51.978;8.472;2023-08-12T22:21:06;100622.94;;;15.87;100.00
4858;BME280;58975;51.978;8.472;2023-08-12T22:26:03;100625.75;;;15.85;100.00
4858;BME280;58975;51.978;8.472;2023-08-12T22:30:59;100626.94;;;15.83;100.00
4858;BME280;58975;51.978;8.472;2023-08-12T22:35:56;100629.06;;;15.79;100.00
4858;BME280;58975;51.978;8.472;2023-08-12T22:40:52;100637.34;;;15.68;100.00
4858;BME280;58975;51.978;8.472;2023-08-12T22:45:49;100642.94;;;15.47;100.00
4858;BME280;58975;51.978;8.472;2023-08-12T22:50:48;100665.81;;;15.51;100.00
4858;BME280;58975;51.978;8.472;2023-08-12T22:55:45;100673.88;;;15.51;100.00
4858;BME280;58975;51.978;8.472;2023-08-12T23:00:42;100694.22;;;15.44;100.00
4858;BME280;58975;51.978;8.472;2023-08-12T23:05:38;100707.78;;;15.43;100.00
4858;BME280;58975;51.978;8.472;2023-08-12T23:10:35;100712.47;;;15.31;100.00
4858;BME280;58975;51.978;8.472;2023-08-12T23:15:31;100715.63;;;15.17;100.00
4858;BME280;58975;51.978;8.472;2023-08-12T23:20:28;100730.34;;;15.13;100.00
4858;BME280;58975;51.978;8.472;2023-08-12T23:25:24;100744.84;;;15.10;100.00
4858;BME280;58975;51.978;8.472;2023-08-12T23:30:21;100754.78;;;15.00;100.00
4858;BME280;58975;51.978;8.472;2023-08-12T23:35:17;100754.22;;;14.87;100.00
4858;BME280;58975;51.978;8.472;2023-08-12T23:40:14;100764.09;;;14.77;100.00
4858;BME280;58975;51.978;8.472;2023-08-12T23:45:11;100761.41;;;14.67;100.00
4858;BME280;58975;51.978;8.472;2023-08-12T23:50:08;100763.38;;;14.56;100.00
4858;BME280;58975;51.978;8.472;2023-08-12T23:55:08;100765.22;;;14.55;100.00
